sensor_id;sensor_type;location;lat;lon;timestamp;P1;durP1;ratioP1;P2;durP2;ratioP2
38425;SDS011;24210;51.460;6.148;2024-01-25T00:00:00;28.27;;;6.87;;
38425;SDS011;24210;51.460;6.148;2024-01-25T00:02:25;31.25;;;6.75;;
38425;SDS011;24210;51.460;6.148;2024-01-25T00:04:51;27.40;;;6.87;;
38425;SDS011;24210;51.460;6.148;2024-01-25T00:07:16;26.53;;;5.90;;
38425;SDS011;24210;51.460;6.148;2024-01-25T00:09:42;21.17;;;5.50;;
38425;SDS011;24210;51.460;6.148;2024-01-25T00:12:07;30.17;;;6.07;;
38425;SDS011;24210;51.460;6.148;2024-01-25T00:14:32;29.33;;;5.80;;
38425;SDS011;24210;51.460;6.148;2024-01-25T00:16:57;25.70;;;5.77;;
38425;SDS011;24210;51.460;6.148;2024-01-25T00:19:23;29.03;;;4.93;;
38425;SDS011;24210;51.460;6.148;2024-01-25T00:21:48;30.23;;;6.33;;
38425;SDS011;24210;51.460;6.148;2024-01-25T00:24:13;28.57;;;5.47;;
38425;SDS011;24210;51.460;6.148;2024-01-25T00:26:38;26.87;;;7.13;;
38425;SDS011;24210;51.460;6.148;2024-01-25T00:29:04;28.50;;;5.13;;
38425;SDS011;24210;51.460;6.148;2024-01-25T00:31:29;29.43;;;5.80;;
38425;SDS011;24210;51.460;6.148;2024-01-25T00:33:55;29.67;;;5.57;;
38425;SDS011;24210;51.460;6.148;2024-01-25T00:36:20;29.87;;;6.43;;
38425;SDS011;24210;51.460;6.148;2024-01-25T00:38:46;25.67;;;4.80;;
38425;SDS011;24210;51.460;6.148;2024-01-25T00:41:11;33.10;;;6.87;;
38425;SDS011;24210;51.460;6.148;2024-01-25T00:43:42;26.33;;;6.63;;
38425;SDS011;24210;51.460;6.148;2024-01-25T00:46:07;29.90;;;7.07;;
38425;SDS011;24210;51.460;6.148;2024-01-25T00:48:32;32.40;;;6.57;;
38425;SDS011;24210;51.460;6.148;2024-01-25T00:50:58;29.97;;;6.13;;
38425;SDS011;24210;51.460;6.148;2024-01-25T00:53:23;24.93;;;5.23;;
38425;SDS011;24210;51.460;6.148;2024-01-25T00:55:48;39.33;;;6.77;;
38425;SDS011;24210;51.460;6.148;2024-01-25T00:58:14;28.57;;;6.43;;
38425;SDS011;24210;51.460;6.148;2024-01-25T01:00:39;25.20;;;6.57;;
38425;SDS011;24210;51.460;6.148;2024-01-25T01:03:04;22.00;;;6.27;;
38425;SDS011;24210;51.460;6.148;2024-01-25T01:05:30;33.23;;;5.63;;
38425;SDS011;24210;51.460;6.148;2024-01-25T01:07:56;23.30;;;5.07;;
38425;SDS011;24210;51.460;6.148;2024-01-25T01:10:21;26.57;;;6.03;;
38425;SDS011;24210;51.460;6.148;2024-01-25T01:12:46;19.80;;;5.67;;
38425;SDS011;24210;51.460;6.148;2024-01-25T01:15:12;30.13;;;7.10;;
38425;SDS011;24210;51.460;6.148;2024-01-25T01:17:37;28.60;;;7.33;;
38425;SDS011;24210;51.460;6.148;2024-01-25T01:20:02;28.20;;;5.10;;
38425;SDS011;24210;51.460;6.148;2024-01-25T01:22:28;21.93;;;6.13;;
38425;SDS011;24210;51.460;6.148;2024-01-25T01:24:53;28.60;;;6.43;;
38425;SDS011;24210;51.460;6.148;2024-01-25T01:27:18;19.47;;;6.13;;
38425;SDS011;24210;51.460;6.148;2024-01-25T01:29:45;29.73;;;6.72;;
38425;SDS011;24210;51.460;6.148;2024-01-25T01:32:10;32.77;;;6.03;;
38425;SDS011;24210;51.460;6.148;2024-01-25T01:34:36;29.40;;;5.50;;
38425;SDS011;24210;51.460;6.148;2024-01-25T01:37:01;23.33;;;6.07;;
38425;SDS011;24210;51.460;6.148;2024-01-25T01:39:26;24.47;;;5.40;;
38425;SDS011;24210;51.460;6.148;2024-01-25T01:41:51;35.97;;;7.20;;
38425;SDS011;24210;51.460;6.148;2024-01-25T01:44:17;34.43;;;7.40;;
38425;SDS011;24210;51.460;6.148;2024-01-25T01:46:42;30.70;;;5.50;;
38425;SDS011;24210;51.460;6.148;2024-01-25T01:49:08;24.17;;;4.63;;
38425;SDS011;24210;51.460;6.148;2024-01-25T01:51:36;26.35;;;6.35;;
38425;SDS011;24210;51.460;6.148;2024-01-25T01:54:01;28.73;;;5.50;;
38425;SDS011;24210;51.460;6.148;2024-01-25T01:56:28;20.30;;;4.70;;
38425;SDS011;24210;51.460;6.148;2024-01-25T01:58:59;27.27;;;6.68;;
38425;SDS011;24210;51.460;6.148;2024-01-25T02:01:25;23.65;;;6.07;;
38425;SDS011;24210;51.460;6.148;2024-01-25T02:03:50;25.40;;;5.37;;
38425;SDS011;24210;51.460;6.148;2024-01-25T02:06:16;19.87;;;4.93;;
38425;SDS011;24210;51.460;6.148;2024-01-25T02:08:41;25.93;;;4.93;;
38425;SDS011;24210;51.460;6.148;2024-01-25T02:11:06;26.00;;;7.13;;
38425;SDS011;24210;51.460;6.148;2024-01-25T02:13:32;31.13;;;6.72;;
38425;SDS011;24210;51.460;6.148;2024-01-25T02:15:58;23.97;;;5.73;;
38425;SDS011;24210;51.460;6.148;2024-01-25T02:18:23;31.83;;;6.80;;
38425;SDS011;24210;51.460;6.148;2024-01-25T02:20:48;28.20;;;6.83;;
38425;SDS011;24210;51.460;6.148;2024-01-25T02:23:13;28.40;;;5.97;;
38425;SDS011;24210;51.460;6.148;2024-01-25T02:25:39;27.13;;;5.23;;
38425;SDS011;24210;51.460;6.148;2024-01-25T02:28:04;30.13;;;5.80;;
38425;SDS011;24210;51.460;6.148;2024-01-25T02:30:30;31.27;;;6.83;;
38425;SDS011;24210;51.460;6.148;2024-01-25T02:32:55;20.97;;;5.27;;
38425;SDS011;24210;51.460;6.148;2024-01-25T02:35:20;20.77;;;5.23;;
38425;SDS011;24210;51.460;6.148;2024-01-25T02:37:46;26.90;;;5.33;;
38425;SDS011;24210;51.460;6.148;2024-01-25T02:40:11;30.17;;;7.47;;
38425;SDS011;24210;51.460;6.148;2024-01-25T02:42:36;26.07;;;6.10;;
38425;SDS011;24210;51.460;6.148;2024-01-25T02:45:02;27.93;;;5.07;;
38425;SDS011;24210;51.460;6.148;2024-01-25T02:47:27;23.53;;;6.03;;
38425;SDS011;24210;51.460;6.148;2024-01-25T02:49:52;23.43;;;5.80;;
38425;SDS011;24210;51.460;6.148;2024-01-25T02:52:17;20.93;;;4.90;;
38425;SDS011;24210;51.460;6.148;2024-01-25T02:54:43;30.67;;;6.63;;
38425;SDS011;24210;51.460;6.148;2024-01-25T02:57:08;30.50;;;5.47;;
38425;SDS011;24210;51.460;6.148;2024-01-25T02:59:33;38.53;;;6.93;;
38425;SDS011;24210;51.460;6.148;2024-01-25T03:01:58;34.37;;;6.53;;
38425;SDS011;24210;51.460;6.148;2024-01-25T03:04:24;36.87;;;5.30;;
38425;SDS011;24210;51.460;6.148;2024-01-25T03:06:49;24.47;;;6.00;;
38425;SDS011;24210;51.460;6.148;2024-01-25T03:09:14;26.87;;;5.57;;
38425;SDS011;24210;51.460;6.148;2024-01-25T03:11:39;34.90;;;6.30;;
38425;SDS011;24210;51.460;6.148;2024-01-25T03:14:05;33.00;;;8.73;;
38425;SDS011;24210;51.460;6.148;2024-01-25T03:16:30;45.13;;;8.17;;
38425;SDS011;24210;51.460;6.148;2024-01-25T03:18:55;23.97;;;5.73;;
38425;SDS011;24210;51.460;6.148;2024-01-25T03:21:20;38.87;;;6.00;;
38425;SDS011;24210;51.460;6.148;2024-01-25T03:23:46;32.37;;;7.17;;
38425;SDS011;24210;51.460;6.148;2024-01-25T03:26:11;26.70;;;7.47;;
38425;SDS011;24210;51.460;6.148;2024-01-25T03:28:36;27.03;;;6.00;;
38425;SDS011;24210;51.460;6.148;2024-01-25T03:31:02;25.40;;;5.10;;
38425;SDS011;24210;51.460;6.148;2024-01-25T03:33:27;22.67;;;5.57;;
38425;SDS011;24210;51.460;6.148;2024-01-25T03:35:54;31.08;;;6.35;;
38425;SDS011;24210;51.460;6.148;2024-01-25T03:38:19;31.87;;;6.97;;
38425;SDS011;24210;51.460;6.148;2024-01-25T03:40:44;27.23;;;7.73;;
38425;SDS011;24210;51.460;6.148;2024-01-25T03:43:09;32.07;;;7.23;;
38425;SDS011;24210;51.460;6.148;2024-01-25T03:45:35;26.90;;;6.03;;
38425;SDS011;24210;51.460;6.148;2024-01-25T03:48:00;34.17;;;6.37;;
38425;SDS011;24210;51.460;6.148;2024-01-25T03:50:26;36.77;;;7.73;;
38425;SDS011;24210;51.460;6.148;2024-01-25T03:52:51;27.10;;;6.25;;
38425;SDS011;24210;51.460;6.148;2024-01-25T03:55:16;32.07;;;6.97;;
38425;SDS011;24210;51.460;6.148;2024-01-25T03:57:42;33.53;;;7.93;;
38425;SDS011;24210;51.460;6.148;2024-01-25T04:00:07;30.87;;;6.57;;
38425;SDS011;24210;51.460;6.148;2024-01-25T04:02:33;26.60;;;7.60;;
38425;SDS011;24210;51.460;6.148;2024-01-25T04:04:58;33.00;;;5.50;;
38425;SDS011;24210;51.460;6.148;2024-01-25T04:07:23;31.33;;;6.03;;
38425;SDS011;24210;51.460;6.148;2024-01-25T04:09:48;29.40;;;6.83;;
38425;SDS011;24210;51.460;6.148;2024-01-25T04:12:15;27.77;;;7.13;;
38425;SDS011;24210;51.460;6.148;2024-01-25T04:14:40;24.70;;;6.70;;
38425;SDS011;24210;51.460;6.148;2024-01-25T04:17:06;28.83;;;6.00;;
38425;SDS011;24210;51.460;6.148;2024-01-25T04:19:31;34.23;;;6.80;;
38425;SDS011;24210;51.460;6.148;2024-01-25T04:21:56;26.80;;;6.33;;
38425;SDS011;24210;51.460;6.148;2024-01-25T04:24:21;29.83;;;7.47;;
38425;SDS011;24210;51.460;6.148;2024-01-25T04:26:47;23.90;;;6.97;;
38425;SDS011;24210;51.460;6.148;2024-01-25T04:29:12;34.13;;;5.67;;
38425;SDS011;24210;51.460;6.148;2024-01-25T04:31:43;28.77;;;7.63;;
38425;SDS011;24210;51.460;6.148;2024-01-25T04:34:10;23.92;;;6.78;;
38425;SDS011;24210;51.460;6.148;2024-01-25T04:36:35;29.97;;;6.63;;
38425;SDS011;24210;51.460;6.148;2024-01-25T04:39:01;30.15;;;7.82;;
38425;SDS011;24210;51.460;6.148;2024-01-25T04:41:26;27.33;;;4.97;;
38425;SDS011;24210;51.460;6.148;2024-01-25T04:43:51;23.87;;;6.57;;
38425;SDS011;24210;51.460;6.148;2024-01-25T04:46:17;24.50;;;5.23;;
38425;SDS011;24210;51.460;6.148;2024-01-25T04:48:42;28.30;;;6.20;;
38425;SDS011;24210;51.460;6.148;2024-01-25T04:51:07;30.10;;;6.97;;
38425;SDS011;24210;51.460;6.148;2024-01-25T04:53:32;24.80;;;6.43;;
38425;SDS011;24210;51.460;6.148;2024-01-25T04:55:58;27.00;;;6.23;;
38425;SDS011;24210;51.460;6.148;2024-01-25T04:58:24;23.73;;;6.22;;
38425;SDS011;24210;51.460;6.148;2024-01-25T05:00:50;20.50;;;6.03;;
38425;SDS011;24210;51.460;6.148;2024-01-25T05:03:18;37.80;;;7.45;;
38425;SDS011;24210;51.460;6.148;2024-01-25T05:05:44;30.05;;;7.75;;
38425;SDS011;24210;51.460;6.148;2024-01-25T05:08:09;26.97;;;6.83;;
38425;SDS011;24210;51.460;6.148;2024-01-25T05:10:35;36.67;;;6.50;;
38425;SDS011;24210;51.460;6.148;2024-01-25T05:13:00;32.17;;;6.50;;
38425;SDS011;24210;51.460;6.148;2024-01-25T05:15:25;30.43;;;6.17;;
38425;SDS011;24210;51.460;6.148;2024-01-25T05:17:50;31.47;;;6.60;;
38425;SDS011;24210;51.460;6.148;2024-01-25T05:20:16;30.30;;;7.17;;
38425;SDS011;24210;51.460;6.148;2024-01-25T05:25:07;36.03;;;7.00;;
38425;SDS011;24210;51.460;6.148;2024-01-25T05:27:33;30.53;;;6.33;;
38425;SDS011;24210;51.460;6.148;2024-01-25T05:29:58;26.10;;;6.10;;
38425;SDS011;24210;51.460;6.148;2024-01-25T05:32:23;32.10;;;6.43;;
38425;SDS011;24210;51.460;6.148;2024-01-25T05:34:49;35.63;;;8.07;;
38425;SDS011;24210;51.460;6.148;2024-01-25T05:37:14;35.57;;;7.80;;
38425;SDS011;24210;51.460;6.148;2024-01-25T05:39:39;25.40;;;5.60;;
38425;SDS011;24210;51.460;6.148;2024-01-25T05:42:04;26.63;;;6.90;;
38425;SDS011;24210;51.460;6.148;2024-01-25T05:44:29;26.57;;;6.13;;
38425;SDS011;24210;51.460;6.148;2024-01-25T05:46:55;20.97;;;5.13;;
38425;SDS011;24210;51.460;6.148;2024-01-25T05:49:20;32.80;;;7.97;;
38425;SDS011;24210;51.460;6.148;2024-01-25T05:51:45;31.40;;;5.27;;
38425;SDS011;24210;51.460;6.148;2024-01-25T05:54:11;31.07;;;7.03;;
38425;SDS011;24210;51.460;6.148;2024-01-25T05:56:36;28.03;;;6.00;;
38425;SDS011;24210;51.460;6.148;2024-01-25T05:59:01;31.40;;;6.33;;
38425;SDS011;24210;51.460;6.148;2024-01-25T06:01:26;28.93;;;7.33;;
38425;SDS011;24210;51.460;6.148;2024-01-25T06:03:52;22.07;;;5.23;;
38425;SDS011;24210;51.460;6.148;2024-01-25T06:06:17;37.40;;;7.87;;
38425;SDS011;24210;51.460;6.148;2024-01-25T06:08:42;29.40;;;7.27;;
38425;SDS011;24210;51.460;6.148;2024-01-25T06:11:07;29.63;;;6.07;;
38425;SDS011;24210;51.460;6.148;2024-01-25T06:13:34;31.88;;;8.45;;
38425;SDS011;24210;51.460;6.148;2024-01-25T06:15:59;24.23;;;7.07;;
38425;SDS011;24210;51.460;6.148;2024-01-25T06:18:25;28.50;;;7.77;;
38425;SDS011;24210;51.460;6.148;2024-01-25T06:20:50;35.57;;;9.23;;
38425;SDS011;24210;51.460;6.148;2024-01-25T06:23:16;47.63;;;9.65;;
38425;SDS011;24210;51.460;6.148;2024-01-25T06:25:41;26.63;;;5.90;;
38425;SDS011;24210;51.460;6.148;2024-01-25T06:28:06;32.63;;;7.17;;
38425;SDS011;24210;51.460;6.148;2024-01-25T06:30:32;20.77;;;5.27;;
38425;SDS011;24210;51.460;6.148;2024-01-25T06:32:57;28.37;;;6.00;;
38425;SDS011;24210;51.460;6.148;2024-01-25T06:35:22;30.37;;;6.27;;
38425;SDS011;24210;51.460;6.148;2024-01-25T06:37:47;30.47;;;7.67;;
38425;SDS011;24210;51.460;6.148;2024-01-25T06:40:12;35.50;;;7.27;;
38425;SDS011;24210;51.460;6.148;2024-01-25T06:42:38;27.80;;;6.03;;
38425;SDS011;24210;51.460;6.148;2024-01-25T06:45:03;28.13;;;5.60;;
38425;SDS011;24210;51.460;6.148;2024-01-25T06:47:28;31.23;;;8.40;;
38425;SDS011;24210;51.460;6.148;2024-01-25T06:49:54;25.83;;;6.83;;
38425;SDS011;24210;51.460;6.148;2024-01-25T06:52:20;30.37;;;7.67;;
38425;SDS011;24210;51.460;6.148;2024-01-25T06:54:45;33.58;;;6.93;;
38425;SDS011;24210;51.460;6.148;2024-01-25T06:57:10;26.40;;;7.03;;
38425;SDS011;24210;51.460;6.148;2024-01-25T06:59:35;29.40;;;6.60;;
38425;SDS011;24210;51.460;6.148;2024-01-25T07:02:01;26.77;;;7.50;;
38425;SDS011;24210;51.460;6.148;2024-01-25T07:04:27;170.20;;;67.57;;
38425;SDS011;24210;51.460;6.148;2024-01-25T07:06:53;71.53;;;27.73;;
38425;SDS011;24210;51.460;6.148;2024-01-25T07:09:18;66.23;;;21.80;;
38425;SDS011;24210;51.460;6.148;2024-01-25T07:11:44;36.45;;;11.43;;
38425;SDS011;24210;51.460;6.148;2024-01-25T07:14:09;26.03;;;7.63;;
38425;SDS011;24210;51.460;6.148;2024-01-25T07:16:34;28.40;;;7.73;;
38425;SDS011;24210;51.460;6.148;2024-01-25T07:19:00;29.40;;;7.73;;
38425;SDS011;24210;51.460;6.148;2024-01-25T07:21:25;32.13;;;6.37;;
38425;SDS011;24210;51.460;6.148;2024-01-25T07:23:50;27.13;;;5.93;;
38425;SDS011;24210;51.460;6.148;2024-01-25T07:26:16;37.93;;;7.40;;
38425;SDS011;24210;51.460;6.148;2024-01-25T07:28:41;27.95;;;8.68;;
38425;SDS011;24210;51.460;6.148;2024-01-25T07:31:06;29.07;;;7.90;;
38425;SDS011;24210;51.460;6.148;2024-01-25T07:33:32;34.10;;;6.90;;
38425;SDS011;24210;51.460;6.148;2024-01-25T07:35:57;35.07;;;7.00;;
38425;SDS011;24210;51.460;6.148;2024-01-25T07:38:23;39.25;;;7.00;;
38425;SDS011;24210;51.460;6.148;2024-01-25T07:40:48;33.37;;;7.97;;
38425;SDS011;24210;51.460;6.148;2024-01-25T07:43:13;32.10;;;6.53;;
38425;SDS011;24210;51.460;6.148;2024-01-25T07:45:39;39.37;;;8.07;;
38425;SDS011;24210;51.460;6.148;2024-01-25T07:48:05;37.20;;;8.07;;
38425;SDS011;24210;51.460;6.148;2024-01-25T07:50:30;32.73;;;7.23;;
38425;SDS011;24210;51.460;6.148;2024-01-25T07:52:55;38.37;;;8.60;;
38425;SDS011;24210;51.460;6.148;2024-01-25T07:55:20;36.27;;;8.13;;
38425;SDS011;24210;51.460;6.148;2024-01-25T07:57:46;26.87;;;6.83;;
38425;SDS011;24210;51.460;6.148;2024-01-25T08:00:11;28.60;;;7.30;;
38425;SDS011;24210;51.460;6.148;2024-01-25T08:02:36;30.00;;;7.50;;
38425;SDS011;24210;51.460;6.148;2024-01-25T08:05:04;25.80;;;6.53;;
38425;SDS011;24210;51.460;6.148;2024-01-25T08:07:29;28.13;;;6.60;;
38425;SDS011;24210;51.460;6.148;2024-01-25T08:09:54;29.23;;;6.60;;
38425;SDS011;24210;51.460;6.148;2024-01-25T08:12:23;31.95;;;16.75;;
38425;SDS011;24210;51.460;6.148;2024-01-25T08:14:48;32.50;;;10.40;;
38425;SDS011;24210;51.460;6.148;2024-01-25T08:17:13;29.67;;;7.97;;
38425;SDS011;24210;51.460;6.148;2024-01-25T08:19:38;33.80;;;8.73;;
38425;SDS011;24210;51.460;6.148;2024-01-25T08:22:04;38.83;;;8.50;;
38425;SDS011;24210;51.460;6.148;2024-01-25T08:24:29;33.67;;;8.87;;
38425;SDS011;24210;51.460;6.148;2024-01-25T08:26:54;40.80;;;9.87;;
38425;SDS011;24210;51.460;6.148;2024-01-25T08:29:20;39.23;;;10.40;;
38425;SDS011;24210;51.460;6.148;2024-01-25T08:31:46;29.80;;;8.52;;
38425;SDS011;24210;51.460;6.148;2024-01-25T08:34:11;35.10;;;8.60;;
38425;SDS011;24210;51.460;6.148;2024-01-25T08:36:36;34.40;;;9.07;;
38425;SDS011;24210;51.460;6.148;2024-01-25T08:39:01;33.47;;;8.23;;
38425;SDS011;24210;51.460;6.148;2024-01-25T08:41:29;35.72;;;8.85;;
38425;SDS011;24210;51.460;6.148;2024-01-25T08:43:54;37.07;;;10.27;;
38425;SDS011;24210;51.460;6.148;2024-01-25T08:46:19;45.33;;;9.23;;
38425;SDS011;24210;51.460;6.148;2024-01-25T08:48:44;36.57;;;9.97;;
38425;SDS011;24210;51.460;6.148;2024-01-25T08:51:10;33.90;;;9.83;;
38425;SDS011;24210;51.460;6.148;2024-01-25T08:53:35;39.50;;;10.70;;
38425;SDS011;24210;51.460;6.148;2024-01-25T08:56:00;34.63;;;10.13;;
38425;SDS011;24210;51.460;6.148;2024-01-25T08:58:25;42.23;;;10.87;;
38425;SDS011;24210;51.460;6.148;2024-01-25T09:00:51;40.50;;;11.13;;
38425;SDS011;24210;51.460;6.148;2024-01-25T09:03:16;47.03;;;14.00;;
38425;SDS011;24210;51.460;6.148;2024-01-25T09:05:41;46.23;;;13.10;;
38425;SDS011;24210;51.460;6.148;2024-01-25T09:08:10;34.17;;;12.15;;
38425;SDS011;24210;51.460;6.148;2024-01-25T09:10:36;43.63;;;16.08;;
38425;SDS011;24210;51.460;6.148;2024-01-25T09:13:01;42.60;;;14.67;;
38425;SDS011;24210;51.460;6.148;2024-01-25T09:15:26;39.87;;;14.97;;
38425;SDS011;24210;51.460;6.148;2024-01-25T09:17:52;33.03;;;11.70;;
38425;SDS011;24210;51.460;6.148;2024-01-25T09:20:17;29.63;;;12.90;;
38425;SDS011;24210;51.460;6.148;2024-01-25T09:22:43;28.33;;;10.47;;
38425;SDS011;24210;51.460;6.148;2024-01-25T09:25:09;38.07;;;15.60;;
38425;SDS011;24210;51.460;6.148;2024-01-25T09:27:34;37.13;;;15.03;;
38425;SDS011;24210;51.460;6.148;2024-01-25T09:29:59;32.00;;;13.50;;
38425;SDS011;24210;51.460;6.148;2024-01-25T09:32:24;23.53;;;11.70;;
38425;SDS011;24210;51.460;6.148;2024-01-25T09:34:49;18.87;;;8.00;;
38425;SDS011;24210;51.460;6.148;2024-01-25T09:37:15;21.97;;;9.60;;
38425;SDS011;24210;51.460;6.148;2024-01-25T09:39:40;27.00;;;13.13;;
38425;SDS011;24210;51.460;6.148;2024-01-25T09:42:05;26.93;;;10.87;;
38425;SDS011;24210;51.460;6.148;2024-01-25T09:44:30;25.50;;;12.33;;
38425;SDS011;24210;51.460;6.148;2024-01-25T09:46:56;31.00;;;11.40;;
38425;SDS011;24210;51.460;6.148;2024-01-25T09:49:22;30.67;;;13.13;;
38425;SDS011;24210;51.460;6.148;2024-01-25T09:51:48;26.58;;;12.18;;
38425;SDS011;24210;51.460;6.148;2024-01-25T09:54:15;24.95;;;11.70;;
38425;SDS011;24210;51.460;6.148;2024-01-25T09:56:41;23.57;;;12.37;;
38425;SDS011;24210;51.460;6.148;2024-01-25T09:59:07;28.42;;;14.98;;
38425;SDS011;24210;51.460;6.148;2024-01-25T10:01:33;28.90;;;13.03;;
38425;SDS011;24210;51.460;6.148;2024-01-25T10:03:59;24.00;;;13.75;;
38425;SDS011;24210;51.460;6.148;2024-01-25T10:06:25;30.37;;;14.63;;
38425;SDS011;24210;51.460;6.148;2024-01-25T10:08:50;34.77;;;15.60;;
38425;SDS011;24210;51.460;6.148;2024-01-25T10:11:16;38.03;;;15.73;;
38425;SDS011;24210;51.460;6.148;2024-01-25T10:13:45;36.20;;;15.57;;
38425;SDS011;24210;51.460;6.148;2024-01-25T10:16:14;32.33;;;14.93;;
38425;SDS011;24210;51.460;6.148;2024-01-25T10:18:40;32.85;;;15.45;;
38425;SDS011;24210;51.460;6.148;2024-01-25T10:21:05;41.00;;;18.05;;
38425;SDS011;24210;51.460;6.148;2024-01-25T10:23:31;34.07;;;16.43;;
38425;SDS011;24210;51.460;6.148;2024-01-25T10:25:56;28.13;;;14.97;;
38425;SDS011;24210;51.460;6.148;2024-01-25T10:28:23;35.73;;;16.60;;
38425;SDS011;24210;51.460;6.148;2024-01-25T10:30:48;31.77;;;17.15;;
38425;SDS011;24210;51.460;6.148;2024-01-25T10:33:13;41.13;;;17.20;;
38425;SDS011;24210;51.460;6.148;2024-01-25T10:35:39;39.30;;;19.63;;
38425;SDS011;24210;51.460;6.148;2024-01-25T10:38:06;36.28;;;17.02;;
38425;SDS011;24210;51.460;6.148;2024-01-25T10:40:32;50.67;;;21.70;;
38425;SDS011;24210;51.460;6.148;2024-01-25T10:42:57;46.50;;;19.87;;
38425;SDS011;24210;51.460;6.148;2024-01-25T10:45:22;44.60;;;18.63;;
38425;SDS011;24210;51.460;6.148;2024-01-25T10:47:48;42.93;;;17.87;;
38425;SDS011;24210;51.460;6.148;2024-01-25T10:50:13;42.43;;;19.53;;
38425;SDS011;24210;51.460;6.148;2024-01-25T10:52:39;48.33;;;23.87;;
38425;SDS011;24210;51.460;6.148;2024-01-25T10:55:05;44.55;;;20.15;;
38425;SDS011;24210;51.460;6.148;2024-01-25T10:57:39;52.33;;;22.40;;
38425;SDS011;24210;51.460;6.148;2024-01-25T11:00:05;45.13;;;21.65;;
38425;SDS011;24210;51.460;6.148;2024-01-25T11:02:34;56.85;;;23.15;;
38425;SDS011;24210;51.460;6.148;2024-01-25T11:04:59;44.65;;;21.27;;
38425;SDS011;24210;51.460;6.148;2024-01-25T11:07:26;54.60;;;20.48;;
38425;SDS011;24210;51.460;6.148;2024-01-25T11:09:51;43.40;;;19.10;;
38425;SDS011;24210;51.460;6.148;2024-01-25T11:12:17;46.80;;;19.37;;
38425;SDS011;24210;51.460;6.148;2024-01-25T11:14:42;49.20;;;18.77;;
38425;SDS011;24210;51.460;6.148;2024-01-25T11:17:14;51.13;;;21.43;;
38425;SDS011;24210;51.460;6.148;2024-01-25T11:19:39;53.97;;;21.40;;
38425;SDS011;24210;51.460;6.148;2024-01-25T11:22:05;51.60;;;21.13;;
38425;SDS011;24210;51.460;6.148;2024-01-25T11:24:31;53.10;;;22.10;;
38425;SDS011;24210;51.460;6.148;2024-01-25T11:27:02;49.58;;;20.10;;
38425;SDS011;24210;51.460;6.148;2024-01-25T11:29:27;44.70;;;20.73;;
38425;SDS011;24210;51.460;6.148;2024-01-25T11:31:53;53.43;;;23.27;;
38425;SDS011;24210;51.460;6.148;2024-01-25T11:34:18;57.00;;;20.57;;
38425;SDS011;24210;51.460;6.148;2024-01-25T11:36:44;48.00;;;21.93;;
38425;SDS011;24210;51.460;6.148;2024-01-25T11:39:09;57.13;;;22.77;;
38425;SDS011;24210;51.460;6.148;2024-01-25T11:41:35;60.10;;;23.07;;
38425;SDS011;24210;51.460;6.148;2024-01-25T11:44:00;68.10;;;25.20;;
38425;SDS011;24210;51.460;6.148;2024-01-25T11:46:26;64.37;;;23.93;;
38425;SDS011;24210;51.460;6.148;2024-01-25T11:48:51;52.90;;;22.50;;
38425;SDS011;24210;51.460;6.148;2024-01-25T11:51:16;48.20;;;20.20;;
38425;SDS011;24210;51.460;6.148;2024-01-25T11:53:42;52.30;;;19.43;;
38425;SDS011;24210;51.460;6.148;2024-01-25T11:56:10;51.33;;;24.23;;
38425;SDS011;24210;51.460;6.148;2024-01-25T11:58:37;60.08;;;20.52;;
38425;SDS011;24210;51.460;6.148;2024-01-25T12:01:03;54.37;;;21.60;;
38425;SDS011;24210;51.460;6.148;2024-01-25T12:03:31;59.92;;;23.17;;
38425;SDS011;24210;51.460;6.148;2024-01-25T12:05:56;50.00;;;21.23;;
38425;SDS011;24210;51.460;6.148;2024-01-25T12:08:24;44.50;;;22.33;;
38425;SDS011;24210;51.460;6.148;2024-01-25T12:10:49;49.77;;;17.50;;
38425;SDS011;24210;51.460;6.148;2024-01-25T12:13:14;52.67;;;17.37;;
38425;SDS011;24210;51.460;6.148;2024-01-25T12:15:40;53.53;;;21.13;;
38425;SDS011;24210;51.460;6.148;2024-01-25T12:18:06;58.67;;;20.70;;
38425;SDS011;24210;51.460;6.148;2024-01-25T12:20:32;50.17;;;19.50;;
38425;SDS011;24210;51.460;6.148;2024-01-25T12:22:58;47.93;;;17.33;;
38425;SDS011;24210;51.460;6.148;2024-01-25T12:25:23;47.25;;;17.85;;
38425;SDS011;24210;51.460;6.148;2024-01-25T12:27:49;43.10;;;16.00;;
38425;SDS011;24210;51.460;6.148;2024-01-25T12:30:15;50.42;;;16.38;;
38425;SDS011;24210;51.460;6.148;2024-01-25T12:32:41;38.20;;;21.07;;
38425;SDS011;24210;51.460;6.148;2024-01-25T12:35:06;41.77;;;16.13;;
38425;SDS011;24210;51.460;6.148;2024-01-25T12:39:58;36.78;;;16.67;;
38425;SDS011;24210;51.460;6.148;2024-01-25T12:42:23;40.00;;;14.27;;
38425;SDS011;24210;51.460;6.148;2024-01-25T12:44:52;39.00;;;15.93;;
38425;SDS011;24210;51.460;6.148;2024-01-25T12:47:17;44.72;;;15.25;;
38425;SDS011;24210;51.460;6.148;2024-01-25T12:49:43;44.80;;;16.03;;
38425;SDS011;24210;51.460;6.148;2024-01-25T12:52:09;39.80;;;16.60;;
38425;SDS011;24210;51.460;6.148;2024-01-25T12:54:34;52.45;;;16.75;;
38425;SDS011;24210;51.460;6.148;2024-01-25T12:56:59;42.57;;;15.63;;
38425;SDS011;24210;51.460;6.148;2024-01-25T12:59:25;44.37;;;17.70;;
38425;SDS011;24210;51.460;6.148;2024-01-25T13:01:50;39.07;;;16.97;;
38425;SDS011;24210;51.460;6.148;2024-01-25T13:04:15;45.27;;;16.10;;
38425;SDS011;24210;51.460;6.148;2024-01-25T13:06:41;37.47;;;16.48;;
38425;SDS011;24210;51.460;6.148;2024-01-25T13:09:07;46.37;;;15.57;;
38425;SDS011;24210;51.460;6.148;2024-01-25T13:11:32;50.47;;;17.57;;
38425;SDS011;24210;51.460;6.148;2024-01-25T13:13:58;41.93;;;15.77;;
38425;SDS011;24210;51.460;6.148;2024-01-25T13:16:23;40.13;;;16.77;;
38425;SDS011;24210;51.460;6.148;2024-01-25T13:18:48;41.27;;;15.43;;
38425;SDS011;24210;51.460;6.148;2024-01-25T13:21:14;43.07;;;19.93;;
38425;SDS011;24210;51.460;6.148;2024-01-25T13:23:39;50.87;;;21.43;;
38425;SDS011;24210;51.460;6.148;2024-01-25T13:26:04;54.50;;;22.27;;
38425;SDS011;24210;51.460;6.148;2024-01-25T13:28:29;52.67;;;17.13;;
38425;SDS011;24210;51.460;6.148;2024-01-25T13:30:55;50.00;;;20.33;;
38425;SDS011;24210;51.460;6.148;2024-01-25T13:33:21;53.80;;;22.27;;
38425;SDS011;24210;51.460;6.148;2024-01-25T13:35:46;46.77;;;18.33;;
38425;SDS011;24210;51.460;6.148;2024-01-25T13:38:11;52.13;;;19.80;;
38425;SDS011;24210;51.460;6.148;2024-01-25T13:40:39;46.78;;;18.27;;
38425;SDS011;24210;51.460;6.148;2024-01-25T13:43:05;52.27;;;18.90;;
38425;SDS011;24210;51.460;6.148;2024-01-25T13:45:30;55.03;;;19.77;;
38425;SDS011;24210;51.460;6.148;2024-01-25T13:47:55;51.30;;;20.97;;
38425;SDS011;24210;51.460;6.148;2024-01-25T13:50:20;56.07;;;20.37;;
38425;SDS011;24210;51.460;6.148;2024-01-25T13:52:45;51.83;;;18.40;;
38425;SDS011;24210;51.460;6.148;2024-01-25T13:55:11;49.53;;;21.07;;
38425;SDS011;24210;51.460;6.148;2024-01-25T13:57:36;73.93;;;24.03;;
38425;SDS011;24210;51.460;6.148;2024-01-25T14:00:01;55.33;;;20.07;;
38425;SDS011;24210;51.460;6.148;2024-01-25T14:02:26;54.03;;;22.10;;
38425;SDS011;24210;51.460;6.148;2024-01-25T14:04:52;73.97;;;28.53;;
38425;SDS011;24210;51.460;6.148;2024-01-25T14:07:17;82.13;;;28.37;;
38425;SDS011;24210;51.460;6.148;2024-01-25T14:09:42;65.57;;;24.00;;
38425;SDS011;24210;51.460;6.148;2024-01-25T14:12:07;70.33;;;23.50;;
38425;SDS011;24210;51.460;6.148;2024-01-25T14:14:33;60.17;;;21.17;;
38425;SDS011;24210;51.460;6.148;2024-01-25T14:16:58;59.77;;;24.93;;
38425;SDS011;24210;51.460;6.148;2024-01-25T14:19:23;55.97;;;25.87;;
38425;SDS011;24210;51.460;6.148;2024-01-25T14:21:48;64.93;;;23.07;;